Time;durP1;ratioP1;P1;durP2;ratioP2;P2;SDS_P1;SDS_P2;PMS_P1;PMS_P2;Temp;Humidity;BMP_temperature;BMP_pressure;BME280_temperature;BME280_humidity;BME280_pressure;Samples;Min_cycle;Max_cycle;Signal;HPM_P1;HPM_P2
2023/04/03 00:01:06;;;;;;;3.97;3.60;;;4.80;99.90;;;;;;5009631;28;20555;-69
2023/04/03 00:03:33;;;;;;;3.30;3.10;;;4.80;99.90;;;;;;5007180;28;20174;-69
2023/04/03 00:05:58;;;;;;;5.17;3.50;;;4.90;99.90;;;;;;5009690;28;20951;-69
2023/04/03 00:08:24;;;;;;;4.10;3.70;;;4.90;99.90;;;;;;5007924;28;20628;-69
2023/04/03 00:10:50;;;;;;;4.30;4.00;;;4.90;99.90;;;;;;5007909;28;20266;-69
2023/04/03 00:13:15;;;;;;;3.80;3.50;;;4.90;99.90;;;;;;5008104;28;20194;-69
2023/04/03 00:15:41;;;;;;;3.97;3.57;;;4.90;99.90;;;;;;5010623;28;20639;-69
2023/04/03 00:18:07;;;;;;;4.10;3.80;;;5.00;99.90;;;;;;5010403;28;20277;-68
2023/04/03 00:20:33;;;;;;;5.13;4.17;;;5.00;99.90;;;;;;5007254;28;20179;-68
2023/04/03 00:22:58;;;;;;;5.17;4.37;;;4.90;99.90;;;;;;5007668;28;20472;-69
2023/04/03 00:25:24;;;;;;;3.90;3.50;;;5.00;99.90;;;;;;5009027;28;20179;-69
2023/04/03 00:27:50;;;;;;;5.53;3.63;;;5.00;99.90;;;;;;5009828;28;20182;-69
2023/04/03 00:30:18;;;;;;;3.57;3.33;;;5.00;99.90;;;;;;5009319;28;20533;-68
2023/04/03 00:32:43;;;;;;;6.17;4.17;;;5.00;99.90;;;;;;5008407;28;20210;-68
2023/04/03 00:35:10;;;;;;;3.90;3.60;;;4.90;99.90;;;;;;5010496;28;20441;-68
2023/04/03 00:37:35;;;;;;;3.93;3.30;;;4.90;99.90;;;;;;5009921;28;20183;-68
2023/04/03 00:40:02;;;;;;;6.93;4.20;;;5.00;99.90;;;;;;5005317;28;20433;-69
2023/04/03 00:42:28;;;;;;;4.77;4.37;;;5.00;99.90;;;;;;5006496;28;20300;-68
2023/04/03 00:44:56;;;;;;;5.10;4.60;;;4.90;99.90;;;;;;5006912;28;20569;-68
2023/04/03 00:47:24;;;;;;;3.77;3.47;;;4.90;99.90;;;;;;5008363;28;20175;-68
2023/04/03 00:49:50;;;;;;;5.40;3.80;;;4.70;99.90;;;;;;5007784;28;20499;-68
2023/04/03 00:52:19;;;;;;;4.37;3.97;;;4.60;99.90;;;;;;5010487;28;20470;-68
2023/04/03 00:54:47;;;;;;;4.03;3.73;;;4.60;99.90;;;;;;5009454;28;20525;-68
2023/04/03 00:57:13;;;;;;;4.83;4.20;;;4.50;99.90;;;;;;5010012;28;20449;-68
2023/04/03 00:59:48;;;;;;;4.77;4.20;;;4.50;99.90;;;;;;5009302;28;20452;-68
2023/04/03 01:02:13;;;;;;;3.83;3.53;;;4.50;99.90;;;;;;5007012;28;20556;-69
2023/04/03 01:04:41;;;;;;;3.90;3.50;;;4.40;99.90;;;;;;5007669;28;21113;-68
2023/04/03 01:07:20;;;;;;;5.83;3.83;;;4.50;99.90;;;;;;5006519;28;20195;-68
2023/04/03 01:09:50;;;;;;;3.40;3.10;;;4.60;99.90;;;;;;5000705;28;20444;-68
2023/04/03 01:12:21;;;;;;;5.73;3.70;;;4.70;99.90;;;;;;5006598;28;20499;-68
2023/04/03 01:14:50;;;;;;;5.53;4.00;;;4.70;99.90;;;;;;5008152;28;20441;-68
2023/04/03 01:17:34;;;;;;;4.20;3.90;;;4.70;99.90;;;;;;5007512;28;20438;-68
2023/04/03 01:20:03;;;;;;;3.90;3.60;;;4.70;99.90;;;;;;5009030;28;20445;-68
2023/04/03 01:22:50;;;;;;;5.30;3.33;;;4.70;99.90;;;;;;5010613;28;20483;-68
2023/04/03 01:25:15;;;;;;;3.57;3.27;;;4.70;99.90;;;;;;5010159;28;20911;-68
2023/04/03 01:27:41;;;;;;;4.57;3.80;;;4.60;99.90;;;;;;5013469;28;20588;-68
2023/04/03 01:30:07;;;;;;;4.20;3.90;;;4.60;99.90;;;;;;5012183;28;20644;-68
2023/04/03 01:32:33;;;;;;;4.13;3.70;;;4.60;99.90;;;;;;5012804;28;20226;-68
2023/04/03 01:34:58;;;;;;;3.83;3.47;;;4.60;99.90;;;;;;5013112;28;20485;-69
2023/04/03 01:37:24;;;;;;;4.63;3.90;;;4.70;99.90;;;;;;5013464;28;20194;-68
2023/04/03 01:39:49;;;;;;;4.20;3.80;;;4.70;99.90;;;;;;5011014;28;20548;-68
2023/04/03 01:42:15;;;;;;;4.53;4.13;;;4.70;99.90;;;;;;5007933;28;20215;-68
2023/04/03 01:44:41;;;;;;;3.90;3.60;;;4.60;99.90;;;;;;5010422;28;20178;-68
2023/04/03 01:47:07;;;;;;;4.00;3.70;;;4.60;99.90;;;;;;5011121;28;20430;-68
2023/04/03 01:49:33;;;;;;;4.67;4.23;;;4.50;99.90;;;;;;5010800;28;20213;-68
2023/04/03 01:51:58;;;;;;;4.40;4.00;;;4.50;99.90;;;;;;5010482;28;20493;-69
2023/04/03 01:54:24;;;;;;;4.90;4.50;;;4.60;99.90;;;;;;5012734;28;20171;-68
2023/04/03 01:56:49;;;;;;;5.87;4.87;;;4.60;99.90;;;;;;5012219;28;20194;-68
2023/04/03 01:59:16;;;;;;;4.83;4.43;;;4.60;99.90;;;;;;5011371;28;20201;-69
2023/04/03 02:01:43;;;;;;;4.00;3.60;;;4.70;99.90;;;;;;5012002;28;20203;-68
2023/04/03 02:04:09;;;;;;;5.07;4.40;;;4.60;99.90;;;;;;5010990;28;20433;-68
2023/04/03 02:06:34;;;;;;;3.63;3.33;;;4.70;99.90;;;;;;5010424;28;20448;-68
2023/04/03 02:09:00;;;;;;;3.60;3.30;;;4.60;99.90;;;;;;5010297;28;20725;-68
2023/04/03 02:11:25;;;;;;;4.23;3.47;;;4.60;99.90;;;;;;5008824;28;20202;-69
2023/04/03 02:13:51;;;;;;;3.77;3.47;;;4.60;99.90;;;;;;5012152;28;20194;-68
2023/04/03 02:16:16;;;;;;;4.93;4.03;;;4.60;99.90;;;;;;5012203;28;20636;-68
2023/04/03 02:18:42;;;;;;;4.40;3.67;;;4.70;99.90;;;;;;5008868;28;20182;-69
2023/04/03 02:21:07;;;;;;;4.33;3.90;;;4.60;99.90;;;;;;5012083;28;20187;-68
2023/04/03 02:23:35;;;;;;;4.03;3.67;;;4.60;99.90;;;;;;4996538;28;20215;-68
2023/04/03 02:26:10;;;;;;;4.60;4.20;;;4.60;99.90;;;;;;5011371;28;20182;-68
2023/04/03 02:28:36;;;;;;;3.87;3.57;;;4.60;99.90;;;;;;5009551;28;20516;-69
2023/04/03 02:31:03;;;;;;;5.13;4.00;;;4.70;99.90;;;;;;5010608;28;21253;-68
2023/04/03 02:33:28;;;;;;;4.10;3.80;;;4.70;99.90;;;;;;5011883;28;20783;-68
2023/04/03 02:35:55;;;;;;;6.57;3.87;;;4.70;99.90;;;;;;5011344;28;20468;-68
2023/04/03 02:38:21;;;;;;;4.00;3.70;;;4.70;99.90;;;;;;5007392;28;20784;-68
2023/04/03 02:40:47;;;;;;;4.43;4.10;;;4.70;99.90;;;;;;5011336;28;20441;-68
2023/04/03 02:43:13;;;;;;;4.10;3.80;;;4.60;99.90;;;;;;5012384;28;20495;-69
2023/04/03 02:45:38;;;;;;;6.20;5.10;;;4.60;99.90;;;;;;5010964;28;20182;-68
2023/04/03 02:48:04;;;;;;;6.47;4.90;;;4.60;99.90;;;;;;5008033;28;20187;-68
2023/04/03 02:50:30;;;;;;;3.93;3.40;;;4.70;99.90;;;;;;5011213;28;20649;-68
2023/04/03 02:52:55;;;;;;;4.40;3.23;;;4.70;99.90;;;;;;5011038;28;20229;-68
2023/04/03 02:55:21;;;;;;;3.73;3.43;;;4.60;99.90;;;;;;5011335;28;20262;-68
2023/04/03 02:57:47;;;;;;;4.73;4.10;;;4.60;99.90;;;;;;5008708;28;20238;-68
2023/04/03 03:00:12;;;;;;;4.10;3.63;;;4.60;99.90;;;;;;5007904;28;20445;-68
2023/04/03 03:02:38;;;;;;;4.73;4.20;;;4.60;99.90;;;;;;5011389;28;20210;-68
2023/04/03 03:05:04;;;;;;;4.53;4.03;;;4.60;99.90;;;;;;5009847;28;20186;-68
2023/04/03 03:07:30;;;;;;;5.17;3.93;;;4.50;99.90;;;;;;5010039;28;20710;-68
2023/04/03 03:09:55;;;;;;;3.97;3.57;;;4.50;99.90;;;;;;5010028;28;20437;-68
2023/04/03 03:12:21;;;;;;;4.60;4.20;;;4.50;99.90;;;;;;5010183;28;20268;-68
2023/04/03 03:14:47;;;;;;;3.77;3.47;;;4.40;99.90;;;;;;5008611;28;20182;-68
2023/04/03 03:17:13;;;;;;;4.00;3.63;;;4.30;99.90;;;;;;5011039;28;20466;-69
2023/04/03 03:19:39;;;;;;;5.77;3.20;;;4.30;99.90;;;;;;5009185;28;20576;-68
2023/04/03 03:22:04;;;;;;;3.90;3.60;;;4.20;99.90;;;;;;5006636;28;20207;-68
2023/04/03 03:24:30;;;;;;;4.17;3.77;;;4.10;99.90;;;;;;5006299;28;20178;-68
2023/04/03 03:26:55;;;;;;;3.93;3.63;;;4.20;99.90;;;;;;5007997;28;20182;-68
2023/04/03 03:29:21;;;;;;;3.83;3.53;;;4.10;99.90;;;;;;5007542;28;20179;-68
2023/04/03 03:31:46;;;;;;;5.07;3.80;;;4.10;99.90;;;;;;5011444;28;20603;-68
2023/04/03 03:34:12;;;;;;;4.00;3.60;;;4.10;99.90;;;;;;5008655;28;20187;-68
2023/04/03 03:36:38;;;;;;;4.20;3.90;;;4.10;99.90;;;;;;5011590;28;20198;-68
2023/04/03 03:39:04;;;;;;;5.43;3.83;;;4.10;99.90;;;;;;5008984;28;20187;-68
2023/04/03 03:41:29;;;;;;;3.47;3.20;;;4.10;99.90;;;;;;5009721;28;20802;-69
2023/04/03 03:43:55;;;;;;;6.90;3.67;;;4.10;99.90;;;;;;5008488;28;20207;-69
2023/04/03 03:46:20;;;;;;;3.83;3.50;;;4.10;99.90;;;;;;5008351;28;20217;-68
2023/04/03 03:48:46;;;;;;;3.30;2.93;;;4.10;99.90;;;;;;5007269;28;20182;-68
2023/04/03 03:51:11;;;;;;;5.50;4.10;;;4.10;99.90;;;;;;5009509;28;20235;-68
2023/04/03 03:53:37;;;;;;;3.37;3.07;;;4.20;99.90;;;;;;5010704;28;20183;-68
2023/04/03 03:56:04;;;;;;;5.03;3.67;;;4.20;99.90;;;;;;5011450;28;20282;-68
2023/04/03 03:58:30;;;;;;;4.83;4.33;;;4.20;99.90;;;;;;5008304;28;20187;-69
2023/04/03 04:00:55;;;;;;;3.73;3.50;;;4.20;99.90;;;;;;5010459;28;20499;-69
2023/04/03 04:03:21;;;;;;;3.93;3.63;;;4.30;99.90;;;;;;5009917;28;20207;-68
2023/04/03 04:05:47;;;;;;;6.10;3.70;;;4.30;99.90;;;;;;5009437;28;20207;-68
2023/04/03 04:08:12;;;;;;;3.70;3.40;;;4.20;99.90;;;;;;5007116;28;20258;-68
2023/04/03 04:10:38;;;;;;;5.20;3.47;;;4.20;99.90;;;;;;5006747;28;20187;-68
2023/04/03 04:13:04;;;;;;;4.47;3.53;;;4.20;99.90;;;;;;5010735;28;20635;-69
2023/04/03 04:15:30;;;;;;;3.87;3.57;;;4.10;99.90;;;;;;5009336;28;20461;-68
2023/04/03 04:17:56;;;;;;;3.93;3.53;;;4.10;99.90;;;;;;5009374;28;20179;-68
2023/04/03 04:20:22;;;;;;;3.67;3.37;;;4.10;99.90;;;;;;5009017;28;21022;-68
2023/04/03 04:22:48;;;;;;;3.37;3.17;;;4.10;99.90;;;;;;5009764;28;20865;-68
2023/04/03 04:25:13;;;;;;;5.57;4.10;;;4.00;99.90;;;;;;4999938;28;20973;-68
2023/04/03 04:27:39;;;;;;;4.80;4.30;;;4.00;99.90;;;;;;4989599;28;20183;-69
2023/04/03 04:30:06;;;;;;;6.87;5.03;;;4.00;99.90;;;;;;4987146;28;20182;-68
2023/04/03 04:32:31;;;;;;;4.47;4.07;;;4.00;99.90;;;;;;4986553;28;20278;-69
2023/04/03 04:34:57;;;;;;;4.20;3.80;;;4.00;99.90;;;;;;4989078;28;20512;-69
2023/04/03 04:37:22;;;;;;;4.43;4.03;;;4.00;99.90;;;;;;4987623;28;20179;-68
2023/04/03 04:39:48;;;;;;;4.40;4.00;;;4.00;99.90;;;;;;4990385;28;20210;-68
2023/04/03 04:42:13;;;;;;;8.27;6.80;;;3.90;99.90;;;;;;4988043;28;20551;-69
2023/04/03 04:44:39;;;;;;;6.43;5.83;;;4.00;99.90;;;;;;4989345;28;20598;-68
2023/04/03 04:47:05;;;;;;;4.53;4.13;;;4.00;99.90;;;;;;4986598;28;20203;-69
2023/04/03 04:49:30;;;;;;;5.73;3.60;;;4.00;99.90;;;;;;4986474;28;20574;-68
2023/04/03 04:51:56;;;;;;;5.57;3.73;;;4.00;99.90;;;;;;4988461;28;20242;-68
2023/04/03 04:54:21;;;;;;;6.33;4.30;;;4.10;99.90;;;;;;4989887;28;20188;-68
2023/04/03 04:56:47;;;;;;;3.90;3.60;;;4.10;99.90;;;;;;4989536;28;20600;-68
2023/04/03 04:59:12;;;;;;;4.90;3.30;;;4.10;99.90;;;;;;4991197;28;20270;-68
2023/04/03 05:01:38;;;;;;;3.97;3.67;;;4.10;99.90;;;;;;4990579;28;20220;-68
2023/04/03 05:04:04;;;;;;;3.77;3.00;;;4.10;99.90;;;;;;4987061;28;20187;-68
2023/04/03 05:06:31;;;;;;;4.53;4.13;;;4.00;99.90;;;;;;4991381;28;20218;-69
2023/04/03 05:08:57;;;;;;;3.67;3.37;;;4.00;99.90;;;;;;4992194;28;20214;-68
2023/04/03 05:11:23;;;;;;;4.23;2.73;;;4.00;99.90;;;;;;4993840;28;20466;-69
2023/04/03 05:13:48;;;;;;;3.47;3.17;;;4.00;99.90;;;;;;4987659;28;20287;-69
2023/04/03 05:16:14;;;;;;;4.40;3.30;;;4.00;99.90;;;;;;4989848;28;20183;-69
2023/04/03 05:18:39;;;;;;;3.27;2.97;;;4.10;99.90;;;;;;4990356;28;20206;-69
2023/04/03 05:21:05;;;;;;;5.30;3.20;;;4.10;99.90;;;;;;4990459;28;20183;-69
2023/04/03 05:23:30;;;;;;;3.60;3.30;;;4.10;99.90;;;;;;4994328;28;20216;-69
2023/04/03 05:25:56;;;;;;;3.30;2.57;;;4.20;99.90;;;;;;4993209;28;20241;-69
2023/04/03 05:28:21;;;;;;;3.37;3.07;;;4.20;99.90;;;;;;4989117;28;20187;-69
2023/04/03 05:30:56;;;;;;;3.10;2.77;;;4.20;99.90;;;;;;4992070;28;20341;-69
2023/04/03 05:33:23;;;;;;;3.20;3.00;;;4.20;99.90;;;;;;4982557;28;20190;-70
2023/04/03 05:35:49;;;;;;;3.70;3.40;;;4.20;99.90;;;;;;4993409;28;20541;-70
2023/04/03 05:38:15;;;;;;;4.07;3.70;;;4.20;99.90;;;;;;4989864;28;20684;-70
2023/04/03 05:40:40;;;;;;;3.20;2.90;;;4.20;99.90;;;;;;4994254;28;20526;-70
2023/04/03 05:43:06;;;;;;;5.07;3.33;;;4.30;99.90;;;;;;4992252;28;20207;-71
2023/04/03 05:45:31;;;;;;;4.10;3.50;;;4.40;99.90;;;;;;4994500;28;20198;-71
2023/04/03 05:47:57;;;;;;;5.10;3.70;;;4.60;99.90;;;;;;4991970;28;20191;-69
2023/04/03 05:50:22;;;;;;;3.53;3.23;;;4.80;99.90;;;;;;4992804;28;20183;-69
2023/04/03 05:52:50;;;;;;;4.00;3.70;;;4.90;99.90;;;;;;4991874;28;20219;-69
2023/04/03 05:55:16;;;;;;;6.83;3.20;;;5.00;99.90;;;;;;4991677;28;21979;-68
2023/04/03 05:57:41;;;;;;;8.27;3.73;;;5.00;99.90;;;;;;4993349;28;20526;-69
2023/04/03 06:00:12;;;;;;;3.90;3.60;;;4.90;99.90;;;;;;4994276;28;20179;-69
2023/04/03 06:02:38;;;;;;;3.90;3.60;;;4.90;99.90;;;;;;4994704;28;20207;-69
2023/04/03 06:05:04;;;;;;;3.47;3.17;;;5.00;99.90;;;;;;4994180;28;20458;-68
2023/04/03 06:07:29;;;;;;;4.67;4.10;;;5.00;99.90;;;;;;4994979;28;20163;-69
2023/04/03 06:09:56;;;;;;;3.73;3.33;;;5.00;99.90;;;;;;5008366;28;20419;-69
2023/04/03 06:12:23;;;;;;;4.10;3.70;;;5.20;99.90;;;;;;4994619;28;20217;-70
2023/04/03 06:14:48;;;;;;;3.57;3.23;;;5.20;99.90;;;;;;4988865;28;20435;-69
2023/04/03 06:17:16;;;;;;;4.07;3.67;;;5.10;99.90;;;;;;4983251;28;20416;-69
2023/04/03 06:19:42;;;;;;;3.70;3.40;;;5.10;99.90;;;;;;4978795;28;20183;-69
2023/04/03 06:22:07;;;;;;;3.70;3.40;;;5.10;99.90;;;;;;4986394;28;20455;-69
2023/04/03 06:24:33;;;;;;;4.13;3.07;;;5.10;99.90;;;;;;4994686;28;20532;-69
2023/04/03 06:26:59;;;;;;;3.47;3.10;;;5.10;99.90;;;;;;4984410;28;20199;-68
2023/04/03 06:29:24;;;;;;;4.80;3.50;;;5.00;99.90;;;;;;4992716;28;20171;-69
2023/04/03 06:31:50;;;;;;;3.73;3.43;;;5.00;99.90;;;;;;4993967;28;21169;-68
2023/04/03 06:34:16;;;;;;;3.40;3.10;;;5.10;99.90;;;;;;4993599;28;20708;-69
2023/04/03 06:36:42;;;;;;;2.93;2.73;;;5.10;99.90;;;;;;4991192;28;20985;-69
2023/04/03 06:39:14;;;;;;;3.63;3.33;;;5.10;99.90;;;;;;4993121;28;20425;-69
2023/04/03 06:41:39;;;;;;;5.10;3.47;;;5.00;99.90;;;;;;4993630;28;20851;-69
2023/04/03 06:44:05;;;;;;;5.77;3.47;;;5.10;99.90;;;;;;4993868;28;20407;-69
2023/04/03 06:46:30;;;;;;;4.60;3.00;;;5.20;99.90;;;;;;4994065;28;20176;-68
2023/04/03 06:48:56;;;;;;;2.83;2.63;;;5.30;99.90;;;;;;4992768;28;20186;-68
2023/04/03 06:51:27;;;;;;;4.30;3.90;;;5.30;99.90;;;;;;4984857;28;20203;-68
2023/04/03 06:53:55;;;;;;;3.80;3.50;;;5.30;99.90;;;;;;4991243;28;20278;-68
2023/04/03 06:56:21;;;;;;;4.80;3.67;;;5.40;99.90;;;;;;4983210;28;20510;-68
2023/04/03 06:58:46;;;;;;;3.93;3.50;;;5.30;99.90;;;;;;4992927;28;20501;-68
2023/04/03 07:01:14;;;;;;;4.60;4.00;;;5.50;99.90;;;;;;4993607;28;20964;-68
2023/04/03 07:03:40;;;;;;;3.87;3.53;;;5.30;99.90;;;;;;4993412;28;20704;-68
2023/04/03 07:06:07;;;;;;;4.30;2.63;;;5.40;99.90;;;;;;4993694;28;20494;-68
2023/04/03 07:08:33;;;;;;;3.97;3.63;;;5.40;99.90;;;;;;4983674;28;20438;-68
2023/04/03 07:10:59;;;;;;;6.17;3.77;;;5.40;99.90;;;;;;4992735;28;20454;-68
2023/04/03 07:13:26;;;;;;;4.50;4.10;;;5.30;99.90;;;;;;4992713;28;20842;-68
2023/04/03 07:15:52;;;;;;;3.50;3.20;;;5.30;99.90;;;;;;4993212;28;20199;-68
2023/04/03 07:18:18;;;;;;;5.40;3.90;;;5.40;99.90;;;;;;4992358;28;20478;-68
2023/04/03 07:20:43;;;;;;;4.23;3.83;;;5.50;99.90;;;;;;4993328;28;20431;-68
2023/04/03 07:23:10;;;;;;;4.20;3.63;;;5.50;99.90;;;;;;4992029;28;20204;-68
2023/04/03 07:25:36;;;;;;;5.00;3.33;;;5.60;99.90;;;;;;4985739;28;20585;-68
2023/04/03 07:28:01;;;;;;;5.07;4.27;;;5.60;99.90;;;;;;4993118;28;20453;-68
2023/04/03 07:30:27;;;;;;;9.77;4.63;;;5.70;99.90;;;;;;4992111;28;20171;-69
2023/04/03 07:32:53;;;;;;;3.60;3.30;;;5.90;99.90;;;;;;4992819;28;20236;-69
2023/04/03 07:35:18;;;;;;;3.83;3.43;;;5.90;99.90;;;;;;4993238;28;20187;-68
2023/04/03 07:37:44;;;;;;;3.80;3.50;;;6.20;99.90;;;;;;4992354;28;20187;-69
2023/04/03 07:40:10;;;;;;;4.90;3.43;;;6.40;99.90;;;;;;4984403;28;20218;-69
2023/04/03 07:42:36;;;;;;;3.67;3.37;;;6.50;99.90;;;;;;4992701;28;20454;-68
2023/04/03 07:45:03;;;;;;;3.20;3.00;;;6.50;99.90;;;;;;4992723;28;20171;-68
2023/04/03 07:47:30;;;;;;;4.13;3.73;;;6.50;99.90;;;;;;4993029;28;20468;-69
2023/04/03 07:49:57;;;;;;;3.73;3.33;;;6.50;99.90;;;;;;4992153;28;20451;-68
2023/04/03 07:52:23;;;;;;;3.87;3.50;;;6.60;99.90;;;;;;4992511;28;20792;-68
2023/04/03 07:54:48;;;;;;;6.80;3.67;;;6.50;99.90;;;;;;4984300;28;20445;-68
2023/04/03 07:57:14;;;;;;;3.77;3.30;;;6.60;99.90;;;;;;4991967;28;20430;-68
2023/04/03 07:59:40;;;;;;;6.63;4.00;;;6.80;99.90;;;;;;4991949;28;20167;-68
2023/04/03 08:02:11;;;;;;;5.90;4.50;;;6.90;99.90;;;;;;4992659;28;20538;-69
2023/04/03 08:04:37;;;;;;;5.27;4.00;;;7.00;99.90;;;;;;4992457;28;20422;-69
2023/04/03 08:07:02;;;;;;;4.30;3.60;;;7.10;99.90;;;;;;4992390;28;20866;-68
2023/04/03 08:09:28;;;;;;;5.73;3.70;;;7.20;99.90;;;;;;4983114;28;20258;-68
2023/04/03 08:11:53;;;;;;;6.70;4.70;;;7.20;99.90;;;;;;4991962;28;20211;-68
2023/04/03 08:14:20;;;;;;;4.43;4.03;;;7.40;99.90;;;;;;4985821;28;20184;-68
2023/04/03 08:16:46;;;;;;;6.23;3.73;;;7.30;99.90;;;;;;4991045;28;20179;-66
2023/04/03 08:19:13;;;;;;;3.70;3.40;;;7.00;99.90;;;;;;4991620;28;20458;-70
2023/04/03 08:21:41;;;;;;;5.47;3.93;;;7.00;99.90;;;;;;4992619;28;20438;-72
2023/04/03 08:24:07;;;;;;;6.93;3.57;;;7.00;99.90;;;;;;4992618;28;20482;-75
2023/04/03 08:26:32;;;;;;;4.03;3.60;;;7.20;99.90;;;;;;4992487;28;20426;-71
2023/04/03 08:28:58;;;;;;;5.40;3.50;;;7.30;99.90;;;;;;4991891;28;20418;-67
2023/04/03 08:31:24;;;;;;;3.57;3.27;;;7.50;99.90;;;;;;4986839;28;20195;-69
2023/04/03 08:33:50;;;;;;;4.90;3.90;;;7.50;99.90;;;;;;4994443;28;20618;-69
2023/04/03 08:36:27;;;;;;;3.90;3.60;;;7.50;99.90;;;;;;4996162;28;20426;-70
2023/04/03 08:38:53;;;;;;;5.73;3.30;;;7.60;99.90;;;;;;4995415;28;20299;-70
2023/04/03 08:41:35;;;;;;;4.07;3.37;;;7.60;99.90;;;;;;4996464;28;20431;-70
2023/04/03 08:44:17;;;;;;;4.83;4.23;;;7.60;99.90;;;;;;4996747;28;20422;-70
2023/04/03 08:47:08;;;;;;;6.30;4.50;;;7.60;99.90;;;;;;4996485;28;20548;-71
2023/04/03 08:49:37;;;;;;;4.53;4.13;;;7.70;99.90;;;;;;4995597;28;20484;-70
2023/04/03 08:52:10;;;;;;;6.20;4.10;;;7.80;99.90;;;;;;4994868;28;20453;-70
2023/04/03 08:54:54;;;;;;;3.83;3.53;;;7.80;99.90;;;;;;4987334;28;20419;-70
2023/04/03 08:57:33;;;;;;;4.50;4.17;;;7.90;99.90;;;;;;4994738;28;20526;-69
2023/04/03 09:00:02;;;;;;;6.70;3.70;;;8.20;99.90;;;;;;4991073;28;20414;-70
2023/04/03 09:02:40;;;;;;;4.10;3.70;;;8.20;99.90;;;;;;4994786;28;20477;-70
2023/04/03 09:05:18;;;;;;;5.80;3.40;;;8.50;99.90;;;;;;4989477;28;20835;-71
2023/04/03 09:07:53;;;;;;;3.83;3.53;;;8.70;99.90;;;;;;4995698;28;20510;-70
2023/04/03 09:10:27;;;;;;;4.20;3.80;;;8.90;99.90;;;;;;4995477;28;20468;-71
2023/04/03 09:13:16;;;;;;;5.23;4.00;;;9.10;99.90;;;;;;4995405;28;20473;-70
2023/04/03 09:15:44;;;;;;;3.60;3.30;;;9.30;99.90;;;;;;4996025;28;20418;-70
2023/04/03 09:18:25;;;;;;;4.93;3.57;;;9.60;99.90;;;;;;4992654;28;20435;-69
2023/04/03 09:21:23;;;;;;;4.30;3.90;;;9.70;99.90;;;;;;4990005;28;20948;-70
2023/04/03 09:23:54;;;;;;;3.87;3.47;;;10.10;99.90;;;;;;4980237;28;20477;-70
2023/04/03 09:26:28;;;;;;;4.90;3.90;;;10.20;99.90;;;;;;4976382;28;20458;-70
2023/04/03 09:28:59;;;;;;;4.20;3.10;;;10.20;99.90;;;;;;4975522;28;20438;-70
2023/04/03 09:31:29;;;;;;;3.90;3.60;;;10.30;99.90;;;;;;4976089;28;20502;-70
2023/04/03 09:33:59;;;;;;;3.63;3.07;;;10.20;99.90;;;;;;4979034;28;20443;-70
2023/04/03 09:36:42;;;;;;;3.90;3.57;;;10.00;99.90;;;;;;4988008;28;20441;-72
2023/04/03 09:39:17;;;;;;;4.73;3.60;;;9.90;99.90;;;;;;4975309;28;20428;-68
2023/04/03 09:41:57;;;;;;;4.20;3.50;;;9.60;99.90;;;;;;4975932;28;20446;-74
2023/04/03 09:44:26;;;;;;;3.77;3.47;;;9.50;99.90;;;;;;4974907;28;20426;-73
2023/04/03 09:46:52;;;;;;;3.30;3.00;;;9.10;99.90;;;;;;4975628;28;20416;-74
2023/04/03 09:49:19;;;;;;;8.20;3.90;;;9.20;99.90;;;;;;4986271;28;20520;-73
2023/04/03 09:51:45;;;;;;;4.03;3.50;;;9.20;99.90;;;;;;4994748;28;20203;-72
2023/04/03 09:54:38;;;;;;;3.10;2.73;;;9.30;99.90;;;;;;4994690;28;20423;-71
2023/04/03 09:57:17;;;;;;;4.97;4.47;;;9.60;99.90;;;;;;4994770;28;20458;-72
2023/04/03 10:00:00;;;;;;;6.00;3.50;;;9.60;99.90;;;;;;4994215;28;20426;-72
2023/04/03 10:02:29;;;;;;;3.70;3.40;;;9.50;99.90;;;;;;4994721;28;20779;-73
2023/04/03 10:04:55;;;;;;;3.40;3.20;;;9.20;99.90;;;;;;4993403;28;20438;-73
2023/04/03 10:07:36;;;;;;;5.40;3.23;;;9.20;99.90;;;;;;4986689;28;20827;-72
2023/04/03 10:10:18;;;;;;;4.20;3.10;;;8.80;99.90;;;;;;4984708;28;20203;-69
2023/04/03 10:12:43;;;;;;;3.83;3.20;;;8.30;99.90;;;;;;4994589;28;20480;-68
2023/04/03 10:15:18;;;;;;;2.87;2.60;;;8.30;99.90;;;;;;4994705;28;20498;-69
2023/04/03 10:17:58;;;;;;;3.37;3.07;;;8.30;99.90;;;;;;4994169;28;20441;-68
2023/04/03 10:20:41;;;;;;;4.07;2.90;;;8.20;99.90;;;;;;4993773;28;20915;-67
2023/04/03 10:23:36;;;;;;;3.30;3.10;;;8.10;99.90;;;;;;4991904;28;20574;-69
2023/04/03 10:26:24;;;;;;;4.20;3.60;;;8.20;99.90;;;;;;4990242;28;20446;-70
2023/04/03 10:29:16;;;;;;;9.00;3.53;;;7.90;99.90;;;;;;4981201;28;20902;-71
2023/04/03 10:32:13;;;;;;;5.50;2.90;;;7.80;99.90;;;;;;4967188;28;20455;-71
2023/04/03 10:34:44;;;;;;;5.40;2.77;;;7.60;99.90;;;;;;4973209;28;20428;-71
2023/04/03 10:37:32;;;;;;;5.03;3.83;;;7.50;99.90;;;;;;4974765;28;20424;-71
2023/04/03 10:40:20;;;;;;;3.30;3.00;;;7.50;99.90;;;;;;4990254;28;20421;-70
2023/04/03 10:43:00;;;;;;;7.17;3.23;;;7.50;99.90;;;;;;4974552;28;20475;-70
2023/04/03 10:45:55;;;;;;;3.50;3.20;;;7.80;99.90;;;;;;4974444;28;20423;-71
2023/04/03 10:48:36;;;;;;;3.87;3.33;;;7.90;99.90;;;;;;4974154;28;20482;-71
2023/04/03 10:51:37;;;;;;;5.80;3.23;;;7.80;99.90;;;;;;4974321;28;20860;-71
2023/04/03 10:54:11;;;;;;;3.30;3.00;;;7.60;99.90;;;;;;4990152;28;20805;-71
2023/04/03 10:56:39;;;;;;;3.80;3.50;;;7.40;99.90;;;;;;4993714;28;20441;-71
2023/04/03 10:59:35;;;;;;;5.83;3.40;;;7.30;99.90;;;;;;4993006;28;20771;-70
2023/04/03 11:02:13;;;;;;;4.20;3.40;;;7.30;99.90;;;;;;4992034;28;20558;-71
2023/04/03 11:04:43;;;;;;;3.70;2.90;;;7.40;99.90;;;;;;4993363;28;20450;-71
2023/04/03 11:07:15;;;;;;;4.40;3.20;;;7.30;99.90;;;;;;4993824;28;20429;-70
2023/04/03 11:09:46;;;;;;;3.77;3.33;;;7.30;99.90;;;;;;4983536;28;20518;-71
2023/04/03 11:12:28;;;;;;;3.60;3.30;;;7.30;99.90;;;;;;4993112;28;20836;-71
2023/04/03 11:14:56;;;;;;;4.20;2.97;;;7.20;99.90;;;;;;4989992;28;20466;-71
2023/04/03 11:17:44;;;;;;;5.40;3.10;;;7.30;99.90;;;;;;4993455;28;20423;-71
2023/04/03 11:20:21;;;;;;;4.17;3.77;;;7.30;99.90;;;;;;4992560;28;20926;-70
2023/04/03 11:22:58;;;;;;;3.60;2.90;;;7.20;99.90;;;;;;4993333;28;20544;-71
2023/04/03 11:25:25;;;;;;;5.30;2.90;;;7.10;99.90;;;;;;4992996;28;20429;-71
2023/04/03 11:28:01;;;;;;;2.80;2.43;;;7.10;99.90;;;;;;4984619;28;20809;-71
2023/04/03 11:31:01;;;;;;;3.80;2.77;;;7.20;99.90;;;;;;4985436;28;20928;-71
2023/04/03 11:33:30;;;;;;;2.70;2.40;;;7.30;99.90;;;;;;4992790;28;20434;-71
2023/04/03 11:36:10;;;;;;;3.60;2.17;;;7.50;99.90;;;;;;4991862;28;20423;-71
2023/04/03 11:38:41;;;;;;;3.17;2.30;;;7.50;99.90;;;;;;4992373;28;20454;-71
2023/04/03 11:41:08;;;;;;;2.80;2.60;;;7.40;99.90;;;;;;4990130;28;20441;-72
2023/04/03 11:43:39;;;;;;;4.37;2.10;;;7.30;99.90;;;;;;4986636;28;20507;-71
2023/04/03 11:46:06;;;;;;;2.90;2.60;;;7.10;99.90;;;;;;4992826;28;20489;-71
2023/04/03 11:48:34;;;;;;;4.53;2.37;;;7.00;99.90;;;;;;4992118;28;20484;-71
2023/04/03 11:51:12;;;;;;;3.70;2.77;;;6.90;99.90;;;;;;4992896;28;20426;-71
2023/04/03 11:53:40;;;;;;;4.17;3.13;;;7.00;99.90;;;;;;4992502;28;20512;-71
2023/04/03 11:56:24;;;;;;;3.20;2.70;;;7.10;99.90;;;;;;4992770;28;20525;-71
2023/04/03 11:59:05;;;;;;;3.27;2.97;;;7.40;99.90;;;;;;4983837;28;20470;-71
2023/04/03 12:01:56;;;;;;;4.50;2.57;;;7.50;99.90;;;;;;4985785;28;20438;-71
2023/04/03 12:04:25;;;;;;;2.83;2.53;;;7.70;99.90;;;;;;4992747;28;20435;-71
2023/04/03 12:07:14;;;;;;;3.07;2.40;;;7.80;99.90;;;;;;4991608;28;20422;-71
2023/04/03 12:09:40;;;;;;;2.40;2.20;;;8.00;99.90;;;;;;4991953;28;20411;-71
2023/04/03 12:12:35;;;;;;;4.03;2.20;;;8.20;99.90;;;;;;4992324;28;20513;-72
2023/04/03 12:15:21;;;;;;;2.60;2.40;;;8.20;99.90;;;;;;4987155;28;20205;-71
2023/04/03 12:17:47;;;;;;;3.33;3.00;;;8.20;99.90;;;;;;4983509;28;20434;-71
2023/04/03 12:20:46;;;;;;;2.70;2.50;;;8.00;99.90;;;;;;4977490;28;20423;-71
2023/04/03 12:23:35;;;;;;;5.03;2.27;;;8.10;99.90;;;;;;4972750;28;20990;-71
2023/04/03 12:26:19;;;;;;;3.40;2.47;;;7.90;99.90;;;;;;4973139;28;20791;-70
2023/04/03 12:28:46;;;;;;;2.33;2.10;;;7.80;99.90;;;;;;4971897;28;20556;-71
2023/04/03 12:31:12;;;;;;;5.50;2.93;;;7.80;99.90;;;;;;4978057;28;20466;-71
2023/04/03 12:33:57;;;;;;;2.40;2.20;;;7.80;99.90;;;;;;4981728;28;20439;-71
2023/04/03 12:36:43;;;;;;;3.63;2.20;;;7.80;99.90;;;;;;4992281;28;20423;-71
2023/04/03 12:39:35;;;;;;;2.90;2.20;;;7.90;99.90;;;;;;4970767;28;20811;-71
2023/04/03 12:42:13;;;;;;;8.63;3.03;;;7.80;99.90;;;;;;4972512;28;20487;-70
2023/04/03 12:44:52;;;;;;;5.13;3.17;;;7.80;99.90;;;;;;4972783;28;20447;-70
2023/04/03 12:47:29;;;;;;;2.97;2.50;;;8.00;99.90;;;;;;4992262;28;20912;-71
2023/04/03 12:49:56;;;;;;;2.43;2.23;;;8.20;99.90;;;;;;4991295;28;20469;-71
2023/04/03 12:52:40;;;;;;;2.70;2.50;;;8.40;99.90;;;;;;4992175;28;20967;-71
2023/04/03 12:55:19;;;;;;;4.70;2.70;;;8.60;99.90;;;;;;4991891;28;20427;-71
2023/04/03 12:57:45;;;;;;;3.17;2.30;;;8.60;98.70;;;;;;4991979;28;20444;-71
2023/04/03 13:00:29;;;;;;;3.30;2.37;;;8.50;99.20;;;;;;4990374;28;20438;-71
2023/04/03 13:02:55;;;;;;;3.83;2.63;;;8.30;98.90;;;;;;4991678;28;20207;-71
2023/04/03 13:05:22;;;;;;;3.00;2.70;;;8.20;98.30;;;;;;4991892;28;20418;-71
2023/04/03 13:08:15;;;;;;;2.87;2.33;;;8.20;98.90;;;;;;4992185;28;20418;-71
2023/04/03 13:10:52;;;;;;;2.90;2.40;;;8.10;96.50;;;;;;4991284;28;20422;-70
2023/04/03 13:13:17;;;;;;;3.63;2.77;;;8.30;97.90;;;;;;4991089;28;20458;-70